TAF and METAR

Could not understand the following METAR

YBAS 230300Z AUTO 10016KT 9999 // NCD 35/02 Q1014 RF00.0/000.0

TAF for Alice Springs Airport

TAF YBAS 222336Z 2300/2324 11012KT CAVOK FM231100 11007KT CAVOK
Report created 23. feb 00:36

between 23. feb 01:00 - 23. feb 01:00

wind 12 knots from ESE (110°) Clear sky

From 23. feb 12:00

wind 7 knots from ESE (110°) Clear sky
Alice Springs Airport in Australia at 541m

Latest 5 airports